createdAt,value
2018-05-16T00:02:17.511Z,101668.89
2018-05-16T00:04:44.933Z,101659.53
2018-05-16T00:07:12.350Z,101659.44
2018-05-16T00:09:39.807Z,101664.73
2018-05-16T00:12:08.146Z,101660.67
2018-05-16T00:14:35.598Z,101656.75
2018-05-16T00:17:03.040Z,101647.69
2018-05-16T00:19:30.502Z,101652.45
2018-05-16T00:22:02.087Z,101648.61
2018-05-16T00:24:29.541Z,101651.83
2018-05-16T00:26:56.970Z,101650.03
2018-05-16T00:29:24.442Z,101643.10
2018-05-16T00:31:51.926Z,101636.81
2018-05-16T00:34:19.392Z,101630.19
2018-05-16T00:36:47.826Z,101631.67
2018-05-16T00:39:15.249Z,101631.56
2018-05-16T00:41:42.966Z,101630.83
2018-05-16T00:44:10.400Z,101625.11
2018-05-16T00:46:37.857Z,101622.66
2018-05-16T00:49:06.272Z,101626.14
2018-05-16T00:51:33.706Z,101621.25
2018-05-16T00:54:01.129Z,101615.20
2018-05-16T00:56:28.585Z,101623.03
2018-05-16T00:58:56.016Z,101621.98
2018-05-16T01:01:23.458Z,101617.75
2018-05-16T01:03:50.894Z,101625.29
2018-05-16T01:06:18.351Z,101621.49
2018-05-16T01:08:45.787Z,101618.60
2018-05-16T01:11:13.233Z,101618.16
2018-05-16T01:13:40.661Z,101611.40
2018-05-16T01:16:08.107Z,101607.09
2018-05-16T01:18:35.541Z,101612.83
2018-05-16T01:21:03.001Z,101605.80
2018-05-16T01:23:30.433Z,101605.34
2018-05-16T01:25:57.853Z,101610.26
2018-05-16T01:28:25.938Z,101603.16
2018-05-16T01:30:53.358Z,101605.39
2018-05-16T01:33:20.809Z,101606.07
2018-05-16T01:35:48.232Z,101599.42
2018-05-16T01:38:15.688Z,101598.02
2018-05-16T01:40:44.050Z,101607.00
2018-05-16T01:43:11.506Z,101598.33
2018-05-16T01:45:38.934Z,101603.58
2018-05-16T01:48:09.737Z,101603.35
2018-05-16T01:50:37.158Z,101598.74
2018-05-16T01:53:04.610Z,101601.84
2018-05-16T01:55:32.038Z,101596.73
2018-05-16T01:57:59.495Z,101592.02
2018-05-16T02:00:26.930Z,101591.75
2018-05-16T02:02:54.373Z,101591.70
2018-05-16T02:05:21.830Z,101587.48
2018-05-16T02:07:50.182Z,101582.65
2018-05-16T02:10:17.642Z,101584.19
2018-05-16T02:12:45.070Z,101582.61
2018-05-16T02:15:12.525Z,101584.91
2018-05-16T02:17:39.950Z,101581.70
2018-05-16T02:20:07.427Z,101577.62
2018-05-16T02:22:34.861Z,101583.09
2018-05-16T02:25:03.321Z,101579.06
2018-05-16T02:27:30.742Z,101575.73
2018-05-16T02:29:58.192Z,101574.59
2018-05-16T02:32:25.630Z,101575.27
2018-05-16T02:34:53.085Z,101574.02
2018-05-16T02:37:20.524Z,101570.70
2018-05-16T02:39:47.990Z,101573.34
2018-05-16T02:44:53.773Z,101575.88
2018-05-16T02:47:21.198Z,101567.66
2018-05-16T02:49:48.618Z,101562.19
2018-05-16T02:52:16.063Z,101559.97
2018-05-16T02:54:43.500Z,101559.29
2018-05-16T02:57:10.977Z,101560.30
2018-05-16T02:59:38.406Z,101559.52
2018-05-16T03:02:05.850Z,101561.47
2018-05-16T03:04:33.269Z,101559.22
2018-05-16T03:07:00.726Z,101558.23
2018-05-16T03:09:28.143Z,101559.23
2018-05-16T03:11:55.594Z,101559.58
2018-05-16T03:14:23.015Z,101570.49
2018-05-16T03:16:50.484Z,101561.51
2018-05-16T03:19:17.946Z,101561.42
2018-05-16T03:21:45.402Z,101560.60
2018-05-16T03:24:12.825Z,101559.66
2018-05-16T03:26:40.283Z,101559.17
2018-05-16T03:29:07.714Z,101546.28
2018-05-16T03:31:35.164Z,101547.29
2018-05-16T03:34:02.595Z,101556.42
2018-05-16T03:36:30.079Z,101546.03
2018-05-16T03:38:57.517Z,101543.53
2018-05-16T03:41:24.948Z,101548.16
2018-05-16T03:43:52.409Z,101545.50
2018-05-16T03:46:19.829Z,101546.48
2018-05-16T03:48:47.289Z,101541.78
2018-05-16T03:51:14.841Z,101541.33
2018-05-16T03:53:42.300Z,101549.20
2018-05-16T03:56:10.653Z,101545.63
2018-05-16T03:58:49.964Z,101552.96
2018-05-16T04:01:29.157Z,101550.41
2018-05-16T04:04:03.273Z,101552.34
2018-05-16T04:06:30.731Z,101548.22
2018-05-16T04:08:58.293Z,101549.97
2018-05-16T04:11:25.754Z,101550.23
2018-05-16T04:13:53.202Z,101548.84
2018-05-16T04:16:21.545Z,101544.12
2018-05-16T04:18:49.014Z,101542.59
2018-05-16T04:21:16.440Z,101547.71
2018-05-16T04:23:43.889Z,101542.37
2018-05-16T04:26:11.313Z,101546.67
2018-05-16T04:28:38.773Z,101546.22
2018-05-16T04:31:06.189Z,101542.20
2018-05-16T04:33:33.609Z,101543.86
2018-05-16T04:36:01.061Z,101543.85
2018-05-16T04:38:28.477Z,101542.95
2018-05-16T04:40:55.926Z,101543.57
2018-05-16T04:43:23.346Z,101543.41
2018-05-16T04:45:50.862Z,101543.32
2018-05-16T04:48:18.278Z,101539.91
2018-05-16T04:50:45.723Z,101543.31
2018-05-16T04:53:13.145Z,101541.32
2018-05-16T04:55:40.594Z,101534.77
2018-05-16T04:58:08.017Z,101538.36
2018-05-16T05:00:35.454Z,101536.09
2018-05-16T05:03:02.873Z,101532.70
2018-05-16T05:05:30.321Z,101538.09
2018-05-16T05:07:57.742Z,101539.63
2018-05-16T05:10:25.206Z,101547.34
2018-05-16T05:12:52.633Z,101536.98
2018-05-16T05:15:21.030Z,101540.09
2018-05-16T05:17:48.469Z,101535.28
2018-05-16T05:20:15.889Z,101525.17
2018-05-16T05:22:43.341Z,101529.77
2018-05-16T05:25:10.758Z,101524.38
2018-05-16T05:27:38.201Z,101526.00
2018-05-16T05:30:05.642Z,101527.45
2018-05-16T05:32:33.105Z,101527.28
2018-05-16T05:35:00.522Z,101523.16
2018-05-16T05:37:27.979Z,101524.03
2018-05-16T05:39:56.409Z,101522.95
2018-05-16T05:42:24.773Z,101522.89
2018-05-16T05:44:52.204Z,101529.02
2018-05-16T05:47:19.641Z,101531.00
2018-05-16T05:49:48.077Z,101538.02
2018-05-16T05:52:15.519Z,101538.98
2018-05-16T05:54:42.933Z,101538.88
2018-05-16T05:57:10.377Z,101536.25
2018-05-16T05:59:37.794Z,101531.90
2018-05-16T06:02:05.247Z,101533.34
2018-05-16T06:04:34.599Z,101541.48
2018-05-16T06:07:02.937Z,101543.05
2018-05-16T06:09:30.387Z,101548.57
2018-05-16T06:11:57.799Z,101556.64
2018-05-16T06:14:26.253Z,101549.48
2018-05-16T06:16:53.678Z,101548.52
2018-05-16T06:19:21.127Z,101544.95
2018-05-16T06:21:48.537Z,101537.67
2018-05-16T06:24:15.994Z,101536.21
2018-05-16T06:26:43.418Z,101541.73
2018-05-16T06:29:11.775Z,101546.50
2018-05-16T06:31:39.186Z,101544.48
2018-05-16T06:34:06.635Z,101545.47
2018-05-16T06:36:34.055Z,101546.94
2018-05-16T06:39:01.516Z,101547.50
2018-05-16T06:41:28.932Z,101548.85
2018-05-16T06:43:56.348Z,101552.14
2018-05-16T06:46:23.817Z,101551.58
2018-05-16T06:48:51.230Z,101555.64
2018-05-16T06:51:18.669Z,101555.97
2018-05-16T06:53:51.152Z,101555.16
2018-05-16T06:56:18.600Z,101559.72
2018-05-16T06:58:49.242Z,101553.43
2018-05-16T07:01:16.737Z,101560.13
2018-05-16T07:03:44.193Z,101553.47
2018-05-16T07:06:11.645Z,101554.24
2018-05-16T07:08:39.105Z,101561.34
2018-05-16T07:11:06.562Z,101559.13
2018-05-16T07:13:34.118Z,101560.53
2018-05-16T07:16:01.496Z,101568.13
2018-05-16T07:18:29.822Z,101573.77
2018-05-16T07:20:57.271Z,101571.29
2018-05-16T07:23:24.690Z,101569.19
2018-05-16T07:25:52.226Z,101571.80
2018-05-16T07:28:19.674Z,101574.36
2018-05-16T07:30:47.154Z,101575.00
2018-05-16T07:33:14.601Z,101574.51
2018-05-16T07:35:42.058Z,101574.72
2018-05-16T07:38:09.522Z,101579.64
2018-05-16T07:40:36.980Z,101576.34
2018-05-16T07:43:04.437Z,101574.48
2018-05-16T07:45:31.875Z,101574.71
2018-05-16T07:47:59.329Z,101584.09
2018-05-16T07:50:28.732Z,101579.80
2018-05-16T07:52:56.205Z,101582.91
2018-05-16T07:55:23.629Z,101588.23
2018-05-16T07:57:51.113Z,101586.66
2018-05-16T08:00:18.539Z,101576.25
2018-05-16T08:02:45.986Z,101576.39
2018-05-16T08:05:13.413Z,101584.48
2018-05-16T08:07:41.859Z,101583.78
2018-05-16T08:10:10.282Z,101585.61
2018-05-16T08:12:37.669Z,101586.18
2018-05-16T08:15:05.088Z,101580.65
2018-05-16T08:17:32.508Z,101580.20
2018-05-16T08:20:00.069Z,101582.56
2018-05-16T08:22:27.477Z,101573.66
2018-05-16T08:24:55.925Z,101584.77
2018-05-16T08:27:23.337Z,101580.86
2018-05-16T08:29:50.789Z,101582.34
2018-05-16T08:32:18.221Z,101588.39
2018-05-16T08:34:45.673Z,101587.80
2018-05-16T08:37:13.192Z,101582.21
2018-05-16T08:39:40.637Z,101589.87
2018-05-16T08:42:08.057Z,101591.72
2018-05-16T08:44:35.522Z,101587.77
2018-05-16T08:47:02.945Z,101597.98
2018-05-16T08:49:31.350Z,101590.94
2018-05-16T08:51:58.857Z,101587.17
2018-05-16T08:54:26.290Z,101590.12
2018-05-16T08:56:53.730Z,101584.57
2018-05-16T08:59:22.098Z,101584.70
2018-05-16T09:01:49.593Z,101583.67
2018-05-16T09:04:17.054Z,101591.17
2018-05-16T09:06:44.497Z,101594.23
2018-05-16T09:09:12.065Z,101594.33
2018-05-16T09:11:39.521Z,101594.11
2018-05-16T09:14:06.941Z,101594.31
2018-05-16T09:16:34.396Z,101596.52
2018-05-16T09:19:01.812Z,101590.89
2018-05-16T09:21:29.257Z,101591.23
2018-05-16T09:23:56.736Z,101597.81
2018-05-16T09:26:24.173Z,101593.58
2018-05-16T09:28:51.589Z,101594.41
2018-05-16T09:31:19.009Z,101595.98
2018-05-16T09:33:46.461Z,101589.34
2018-05-16T09:36:13.869Z,101591.77
2018-05-16T09:38:41.317Z,101599.01
2018-05-16T09:41:08.741Z,101593.53
2018-05-16T09:43:37.206Z,101605.41
2018-05-16T09:46:04.713Z,101601.91
2018-05-16T09:48:32.078Z,101605.85
2018-05-16T09:50:59.550Z,101606.87
2018-05-16T09:53:27.113Z,101597.83
2018-05-16T09:55:54.538Z,101604.30
2018-05-16T09:58:21.990Z,101597.22
2018-05-16T10:00:49.409Z,101598.59
2018-05-16T10:03:16.854Z,101602.59
2018-05-16T10:05:44.274Z,101607.61
2018-05-16T10:08:11.726Z,101604.34
2018-05-16T10:10:39.151Z,101602.20
2018-05-16T10:13:06.577Z,101599.41
2018-05-16T10:15:34.030Z,101593.03
2018-05-16T10:18:01.450Z,101596.83
2018-05-16T10:20:28.893Z,101591.84
2018-05-16T10:22:56.325Z,101590.61
2018-05-16T10:25:25.781Z,101593.41
2018-05-16T10:27:53.202Z,101581.92
2018-05-16T10:30:20.649Z,101587.33
2018-05-16T10:32:48.074Z,101587.83
2018-05-16T10:35:15.521Z,101587.59
2018-05-16T10:37:42.946Z,101590.00
2018-05-16T10:40:10.385Z,101592.42
2018-05-16T10:42:37.889Z,101586.06
2018-05-16T10:45:05.538Z,101597.50
2018-05-16T10:47:32.961Z,101593.22
2018-05-16T10:50:01.297Z,101591.95
2018-05-16T10:52:28.734Z,101591.12
2018-05-16T10:54:56.290Z,101589.23
2018-05-16T10:57:23.742Z,101598.03
2018-05-16T10:59:51.171Z,101600.66
2018-05-16T11:02:18.657Z,101593.08
2018-05-16T11:04:46.086Z,101592.02
2018-05-16T11:07:14.481Z,101589.72
2018-05-16T11:09:41.905Z,101585.25
2018-05-16T11:12:09.345Z,101581.50
2018-05-16T11:14:36.761Z,101587.84
2018-05-16T11:17:04.205Z,101589.97
2018-05-16T11:19:32.593Z,101595.53
2018-05-16T11:22:00.039Z,101592.44
2018-05-16T11:24:27.468Z,101585.48
2018-05-16T11:26:54.911Z,101589.70
2018-05-16T11:29:22.422Z,101591.81
2018-05-16T11:31:49.873Z,101590.06
2018-05-16T11:34:17.299Z,101590.58
2018-05-16T11:36:44.742Z,101589.34
2018-05-16T11:39:12.250Z,101584.81
2018-05-16T11:41:40.669Z,101582.17
2018-05-16T11:44:08.090Z,101589.66
2018-05-16T11:46:35.528Z,101581.78
2018-05-16T11:49:04.225Z,101578.40
2018-05-16T11:51:31.366Z,101577.99
2018-05-16T11:53:58.838Z,101582.39
2018-05-16T11:56:26.258Z,101579.44
2018-05-16T11:58:54.768Z,101579.55
2018-05-16T12:01:22.241Z,101587.61
2018-05-16T12:03:51.625Z,101578.74
2018-05-16T12:06:19.483Z,101581.70
2018-05-16T12:08:46.930Z,101581.52
2018-05-16T12:11:14.355Z,101573.06
2018-05-16T12:13:42.716Z,101571.31
2018-05-16T12:16:10.133Z,101575.64
2018-05-16T12:18:38.474Z,101574.60
2018-05-16T12:21:05.890Z,101579.52
2018-05-16T12:23:33.337Z,101576.89
2018-05-16T12:26:00.765Z,101583.91
2018-05-16T12:28:28.242Z,101582.03
2018-05-16T12:30:55.659Z,101568.43
2018-05-16T12:33:23.117Z,101570.33
2018-05-16T12:35:50.534Z,101581.50
2018-05-16T12:38:17.956Z,101579.92
2018-05-16T12:40:45.415Z,101580.08
2018-05-16T12:43:17.804Z,101578.00
2018-05-16T12:45:45.249Z,101575.30
2018-05-16T12:48:12.678Z,101573.95
2018-05-16T12:50:45.905Z,101576.16
2018-05-16T12:53:14.289Z,101569.52
2018-05-16T12:55:41.786Z,101562.08
2018-05-16T12:58:09.162Z,101572.41
2018-05-16T13:00:37.570Z,101569.91
2018-05-16T13:03:05.926Z,101565.78
2018-05-16T13:05:33.377Z,101572.73
2018-05-16T13:08:00.866Z,101573.67
2018-05-16T13:10:28.425Z,101564.61
2018-05-16T13:12:55.886Z,101568.48
2018-05-16T13:15:23.337Z,101564.19
2018-05-16T13:17:50.899Z,101573.06
2018-05-16T13:20:19.143Z,101574.39
2018-05-16T13:22:46.748Z,101567.89
2018-05-16T13:25:14.177Z,101576.21
2018-05-16T13:27:41.750Z,101576.53
2018-05-16T13:30:09.166Z,101572.13
2018-05-16T13:32:36.622Z,101573.44
2018-05-16T13:35:04.116Z,101576.15
2018-05-16T13:37:31.573Z,101576.66
2018-05-16T13:39:59.007Z,101575.20
2018-05-16T13:42:26.484Z,101576.05
2018-05-16T13:44:53.949Z,101579.17
2018-05-16T13:47:21.385Z,101575.41
2018-05-16T13:49:48.887Z,101577.70
2018-05-16T13:52:16.329Z,101575.41
2018-05-16T13:54:43.777Z,101574.48
2018-05-16T13:57:11.192Z,101577.47
2018-05-16T13:59:38.693Z,101575.82
2018-05-16T14:02:06.105Z,101572.77
2018-05-16T14:04:33.563Z,101568.44
2018-05-16T14:07:01.055Z,101567.00
2018-05-16T14:09:28.623Z,101565.37
2018-05-16T14:11:56.054Z,101561.52
2018-05-16T14:14:23.494Z,101561.80
2018-05-16T14:16:50.924Z,101566.66
2018-05-16T14:19:18.354Z,101564.39
2018-05-16T14:21:45.793Z,101558.72
2018-05-16T14:24:13.217Z,101551.84
2018-05-16T14:26:40.668Z,101552.00
2018-05-16T14:29:08.157Z,101563.63
2018-05-16T14:31:35.614Z,101556.09
2018-05-16T14:34:03.043Z,101554.73
2018-05-16T14:36:30.552Z,101558.84
2018-05-16T14:38:57.976Z,101549.23
2018-05-16T14:41:25.422Z,101551.74
2018-05-16T14:43:53.794Z,101543.40
2018-05-16T14:46:21.242Z,101546.03
2018-05-16T14:48:48.750Z,101537.04
2018-05-16T14:51:16.243Z,101536.45
2018-05-16T14:53:44.671Z,101537.50
2018-05-16T14:56:12.120Z,101536.91
2018-05-16T14:58:39.574Z,101534.20
2018-05-16T15:01:06.982Z,101532.14
2018-05-16T15:03:34.420Z,101527.52
2018-05-16T15:06:01.849Z,101526.88
2018-05-16T15:08:29.317Z,101529.66
2018-05-16T15:10:56.773Z,101535.42
2018-05-16T15:13:24.294Z,101538.28
2018-05-16T15:15:51.798Z,101529.09
2018-05-16T15:18:19.382Z,101535.23
2018-05-16T15:20:46.802Z,101526.88
2018-05-16T15:23:14.218Z,101520.78
2018-05-16T15:25:41.661Z,101523.42
2018-05-16T15:28:09.171Z,101521.84
2018-05-16T15:30:36.642Z,101517.34
2018-05-16T15:33:04.060Z,101513.67
2018-05-16T15:35:31.502Z,101514.72
2018-05-16T15:37:58.917Z,101520.03
2018-05-16T15:40:26.465Z,101514.34
2018-05-16T15:42:53.875Z,101516.45
2018-05-16T15:45:21.309Z,101514.30
2018-05-16T15:47:48.722Z,101513.08
2018-05-16T15:50:16.177Z,101512.29
2018-05-16T15:52:43.637Z,101511.77
2018-05-16T15:55:11.358Z,101515.38
2018-05-16T15:57:38.773Z,101513.23
2018-05-16T16:00:06.324Z,101516.62
2018-05-16T16:02:33.769Z,101505.70
2018-05-16T16:05:01.187Z,101510.97
2018-05-16T16:07:28.629Z,101507.13
2018-05-16T16:09:56.038Z,101514.11
2018-05-16T16:12:23.485Z,101510.48
2018-05-16T16:14:50.897Z,101510.71
2018-05-16T16:17:18.345Z,101502.30
2018-05-16T16:19:45.859Z,101507.95
2018-05-16T16:22:14.246Z,101501.98
2018-05-16T16:24:42.682Z,101500.83
2018-05-16T16:27:10.121Z,101493.69
2018-05-16T16:29:37.534Z,101492.94
2018-05-16T16:32:04.981Z,101491.66
2018-05-16T16:34:32.502Z,101488.28
2018-05-16T16:37:00.008Z,101492.08
2018-05-16T16:39:28.385Z,101486.22
2018-05-16T16:41:55.827Z,101488.86
2018-05-16T16:44:24.191Z,101485.55
2018-05-16T16:46:51.674Z,101486.16
2018-05-16T16:49:19.136Z,101481.84
2018-05-16T16:51:46.589Z,101479.59
2018-05-16T16:54:14.049Z,101481.86
2018-05-16T16:56:41.465Z,101473.53
2018-05-16T16:59:08.905Z,101469.73
2018-05-16T17:01:38.339Z,101472.69
2018-05-16T17:04:05.825Z,101476.70
2018-05-16T17:06:33.378Z,101476.22
2018-05-16T17:09:00.818Z,101474.03
2018-05-16T17:11:28.241Z,101471.10
2018-05-16T17:13:55.694Z,101474.68
2018-05-16T17:16:23.190Z,101474.13
2018-05-16T17:18:50.535Z,101478.05
2018-05-16T17:21:18.009Z,101486.55
2018-05-16T17:23:45.470Z,101490.11
2018-05-16T17:26:12.918Z,101496.11
2018-05-16T17:28:40.331Z,101501.73
2018-05-16T17:31:07.837Z,101500.03
2018-05-16T17:33:35.247Z,101503.94
2018-05-16T17:36:02.724Z,101503.39
2018-05-16T17:38:30.133Z,101506.04
2018-05-16T17:40:57.591Z,101509.73
2018-05-16T17:43:24.997Z,101514.98
2018-05-16T17:45:52.445Z,101509.22
2018-05-16T17:48:19.857Z,101513.36
2018-05-16T17:50:47.339Z,101518.19
2018-05-16T17:53:14.850Z,101516.05
2018-05-16T17:55:42.313Z,101517.84
2018-05-16T17:58:09.728Z,101522.39
2018-05-16T18:00:37.159Z,101512.11
2018-05-16T18:03:04.582Z,101517.70
2018-05-16T18:05:32.131Z,101523.10
2018-05-16T18:08:00.519Z,101519.30
2018-05-16T18:10:27.979Z,101527.05
2018-05-16T18:16:05.190Z,101529.48
2018-05-16T18:18:33.554Z,101528.16
2018-05-16T18:21:00.987Z,101528.50
2018-05-16T18:23:28.425Z,101536.09
2018-05-16T18:25:55.843Z,101530.41
2018-05-16T18:28:23.281Z,101532.00
2018-05-16T18:30:50.739Z,101530.11
2018-05-16T18:33:18.190Z,101532.80
2018-05-16T18:35:45.606Z,101535.09
2018-05-16T18:38:13.050Z,101538.50
2018-05-16T18:40:40.560Z,101532.41
2018-05-16T18:43:08.049Z,101538.34
2018-05-16T18:45:36.465Z,101540.73
2018-05-16T18:48:03.879Z,101540.65
2018-05-16T18:50:32.332Z,101541.27
2018-05-16T18:52:59.746Z,101540.34
2018-05-16T18:55:27.189Z,101537.67
2018-05-16T18:57:54.598Z,101552.69
2018-05-16T19:00:22.045Z,101550.91
2018-05-16T19:02:49.473Z,101554.35
2018-05-16T19:05:16.974Z,101559.08
2018-05-16T19:07:44.398Z,101562.61
2018-05-16T19:10:11.889Z,101565.13
2018-05-16T19:12:39.301Z,101561.31
2018-05-16T19:15:06.812Z,101566.23
2018-05-16T19:17:34.217Z,101569.01
2018-05-16T19:20:01.670Z,101571.44
2018-05-16T19:22:29.086Z,101563.97
2018-05-16T19:24:56.553Z,101563.36
2018-05-16T19:27:23.965Z,101564.48
2018-05-16T19:29:51.453Z,101567.64
2018-05-16T19:32:18.926Z,101570.03
2018-05-16T19:34:46.356Z,101573.44
2018-05-16T19:37:13.904Z,101574.27
2018-05-16T19:39:41.364Z,101572.45
2018-05-16T19:42:08.838Z,101579.25
2018-05-16T19:44:36.276Z,101586.61
2018-05-16T19:47:03.762Z,101580.77
2018-05-16T19:49:31.187Z,101590.32
2018-05-16T19:52:00.622Z,101603.41
2018-05-16T19:54:29.060Z,101607.09
2018-05-16T19:56:56.510Z,101610.81
2018-05-16T19:59:23.948Z,101612.80
2018-05-16T20:01:51.403Z,101614.06
2018-05-16T20:04:18.813Z,101623.34
2018-05-16T20:06:46.252Z,101618.16
2018-05-16T20:09:15.622Z,101629.02
2018-05-16T20:11:43.077Z,101630.97
2018-05-16T20:14:10.491Z,101637.25
2018-05-16T20:16:37.898Z,101636.28
2018-05-16T20:19:05.358Z,101638.48
2018-05-16T20:21:32.838Z,101629.47
2018-05-16T20:24:00.285Z,101633.54
2018-05-16T20:26:27.750Z,101632.80
2018-05-16T20:28:55.201Z,101630.55
2018-05-16T20:31:22.626Z,101632.45
2018-05-16T20:33:50.066Z,101632.50
2018-05-16T20:36:17.473Z,101635.42
2018-05-16T20:38:45.411Z,101637.21
2018-05-16T20:41:12.827Z,101635.16
2018-05-16T20:43:40.271Z,101641.59
2018-05-16T20:46:07.715Z,101633.31
2018-05-16T20:48:35.157Z,101632.82
2018-05-16T20:51:02.627Z,101632.70
2018-05-16T20:53:30.069Z,101644.08
2018-05-16T20:55:57.490Z,101642.84
2018-05-16T20:58:24.991Z,101646.91
2018-05-16T21:00:52.417Z,101639.42
2018-05-16T21:03:19.837Z,101651.34
2018-05-16T21:05:47.278Z,101649.02
2018-05-16T21:08:14.718Z,101649.62
2018-05-16T21:10:42.158Z,101653.29
2018-05-16T21:13:09.630Z,101644.28
2018-05-16T21:15:37.089Z,101654.53
2018-05-16T21:18:04.508Z,101648.83
2018-05-16T21:20:31.981Z,101651.24
2018-05-16T21:22:59.394Z,101651.66
2018-05-16T21:25:26.910Z,101656.04
2018-05-16T21:27:54.329Z,101652.62
2018-05-16T21:30:21.771Z,101657.91
2018-05-16T21:32:49.177Z,101659.03
2018-05-16T21:35:17.234Z,101664.26
2018-05-16T21:37:44.711Z,101670.51
2018-05-16T21:40:12.153Z,101669.53
2018-05-16T21:42:39.590Z,101674.13
2018-05-16T21:45:07.081Z,101673.65
2018-05-16T21:47:34.572Z,101669.61
2018-05-16T21:50:02.005Z,101672.12
2018-05-16T21:52:29.486Z,101678.77
2018-05-16T21:54:56.899Z,101678.47
2018-05-16T21:57:24.391Z,101661.88
2018-05-16T21:59:51.810Z,101665.50
2018-05-16T22:02:19.255Z,101671.14
2018-05-16T22:04:46.665Z,101672.70
2018-05-16T22:07:14.109Z,101667.81
2018-05-16T22:09:41.529Z,101667.39
2018-05-16T22:12:09.001Z,101670.92
2018-05-16T22:14:36.433Z,101670.09
2018-05-16T22:17:03.873Z,101677.30
2018-05-16T22:19:31.290Z,101672.28
2018-05-16T22:21:58.779Z,101680.45
2018-05-16T22:24:26.198Z,101671.18
2018-05-16T22:26:53.687Z,101676.38
2018-05-16T22:29:21.202Z,101680.70
2018-05-16T22:31:54.197Z,101678.48
2018-05-16T22:34:28.181Z,101682.50
2018-05-16T22:37:01.313Z,101688.02
2018-05-16T22:39:34.390Z,101686.98
2018-05-16T22:42:07.386Z,101685.95
2018-05-16T22:44:39.369Z,101684.51
2018-05-16T22:47:06.873Z,101682.77
2018-05-16T22:49:34.289Z,101693.00
2018-05-16T22:52:01.708Z,101692.77
2018-05-16T22:54:29.149Z,101695.98
2018-05-16T22:56:56.610Z,101695.79
2018-05-16T22:59:24.093Z,101694.73
2018-05-16T23:01:51.472Z,101692.42
2018-05-16T23:04:19.890Z,101687.41
2018-05-16T23:06:47.304Z,101693.02
2018-05-16T23:09:14.743Z,101688.98
2018-05-16T23:11:42.163Z,101683.14
2018-05-16T23:14:09.601Z,101681.02
2018-05-16T23:16:37.078Z,101687.64
2018-05-16T23:19:04.539Z,101688.53
2018-05-16T23:21:31.995Z,101682.88
2018-05-16T23:23:59.413Z,101688.56
2018-05-16T23:26:26.907Z,101692.39
2018-05-16T23:28:54.330Z,101695.75
2018-05-16T23:31:21.817Z,101684.32
2018-05-16T23:33:49.275Z,101690.28
2018-05-16T23:36:16.737Z,101686.48
2018-05-16T23:38:44.190Z,101685.27
2018-05-16T23:44:02.724Z,101689.22
2018-05-16T23:46:30.169Z,101692.35
2018-05-16T23:48:57.603Z,101689.73
2018-05-16T23:51:25.046Z,101683.77
2018-05-16T23:53:52.461Z,101688.41
2018-05-16T23:56:19.937Z,101687.73
2018-05-16T23:58:47.362Z,101690.17
